sensor_id;sensor_type;location;lat;lon;timestamp;pressure;altitude;pressure_sealevel;temperature;humidity
84781;BME280;75011;50.086;19.886;2024-03-08T00:02:57;99544.97;;;1.24;74.27
84781;BME280;75011;50.086;19.886;2024-03-08T00:05:59;99543.31;;;1.23;73.93
84781;BME280;75011;50.086;19.886;2024-03-08T00:09:00;99533.41;;;1.25;74.11
84781;BME280;75011;50.086;19.886;2024-03-08T00:12:00;99536.69;;;1.27;74.04
84781;BME280;75011;50.086;19.886;2024-03-08T00:15:00;99538.31;;;1.28;74.05
84781;BME280;75011;50.086;19.886;2024-03-08T00:18:01;99533.56;;;1.23;74.24
84781;BME280;75011;50.086;19.886;2024-03-08T00:21:03;99526.09;;;1.27;73.90
84781;BME280;75011;50.086;19.886;2024-03-08T00:24:04;99530.91;;;1.23;74.08
84781;BME280;75011;50.086;19.886;2024-03-08T00:27:04;99534.88;;;1.27;73.42
84781;BME280;75011;50.086;19.886;2024-03-08T00:30:06;99532.03;;;1.29;73.36
84781;BME280;75011;50.086;19.886;2024-03-08T00:33:06;99526.81;;;1.21;73.67
84781;BME280;75011;50.086;19.886;2024-03-08T00:36:08;99529.16;;;1.16;73.06
84781;BME280;75011;50.086;19.886;2024-03-08T00:39:08;99525.53;;;1.17;73.15
84781;BME280;75011;50.086;19.886;2024-03-08T00:42:09;99524.00;;;1.22;73.37
84781;BME280;75011;50.086;19.886;2024-03-08T00:45:10;99517.03;;;1.21;72.95
84781;BME280;75011;50.086;19.886;2024-03-08T00:48:11;99525.91;;;1.28;73.18
84781;BME280;75011;50.086;19.886;2024-03-08T00:51:12;99517.50;;;1.25;72.58
84781;BME280;75011;50.086;19.886;2024-03-08T00:54:13;99519.63;;;1.30;72.58
84781;BME280;75011;50.086;19.886;2024-03-08T00:57:13;99517.50;;;1.25;72.67
84781;BME280;75011;50.086;19.886;2024-03-08T01:00:14;99518.97;;;1.27;72.67
84781;BME280;75011;50.086;19.886;2024-03-08T01:03:15;99509.66;;;1.32;72.32
84781;BME280;75011;50.086;19.886;2024-03-08T01:06:16;99511.69;;;1.30;72.32
84781;BME280;75011;50.086;19.886;2024-03-08T01:09:17;99515.59;;;1.34;72.29
84781;BME280;75011;50.086;19.886;2024-03-08T01:12:17;99510.78;;;1.37;72.47
84781;BME280;75011;50.086;19.886;2024-03-08T01:15:18;99504.31;;;1.40;72.42
84781;BME280;75011;50.086;19.886;2024-03-08T01:18:18;99506.31;;;1.38;72.46
84781;BME280;75011;50.086;19.886;2024-03-08T01:21:20;99493.22;;;1.36;71.94
84781;BME280;75011;50.086;19.886;2024-03-08T01:24:20;99496.16;;;1.41;72.44
84781;BME280;75011;50.086;19.886;2024-03-08T01:27:21;99491.78;;;1.34;72.04
84781;BME280;75011;50.086;19.886;2024-03-08T01:30:21;99491.50;;;1.28;71.62
84781;BME280;75011;50.086;19.886;2024-03-08T01:33:23;99475.97;;;1.25;72.15
84781;BME280;75011;50.086;19.886;2024-03-08T01:36:25;99489.47;;;1.31;71.86
84781;BME280;75011;50.086;19.886;2024-03-08T01:39:26;99483.53;;;1.28;71.81
84781;BME280;75011;50.086;19.886;2024-03-08T01:42:26;99472.81;;;1.30;71.86
84781;BME280;75011;50.086;19.886;2024-03-08T01:45:26;99487.13;;;1.36;72.09
84781;BME280;75011;50.086;19.886;2024-03-08T01:48:27;99481.28;;;1.40;71.02
84781;BME280;75011;50.086;19.886;2024-03-08T01:51:30;99474.25;;;1.33;71.30
84781;BME280;75011;50.086;19.886;2024-03-08T01:54:31;99478.81;;;1.24;71.89
84781;BME280;75011;50.086;19.886;2024-03-08T01:57:31;99479.34;;;1.19;71.68
84781;BME280;75011;50.086;19.886;2024-03-08T02:00:32;99480.63;;;1.23;71.74
84781;BME280;75011;50.086;19.886;2024-03-08T02:03:33;99474.50;;;1.23;71.92
84781;BME280;75011;50.086;19.886;2024-03-08T02:06:35;99471.41;;;1.19;71.49
84781;BME280;75011;50.086;19.886;2024-03-08T02:09:36;99463.13;;;1.22;71.97
84781;BME280;75011;50.086;19.886;2024-03-08T02:12:36;99463.56;;;1.26;71.44
84781;BME280;75011;50.086;19.886;2024-03-08T02:15:50;99454.97;;;1.24;71.40
84781;BME280;75011;50.086;19.886;2024-03-08T02:18:50;99457.63;;;1.24;71.34
84781;BME280;75011;50.086;19.886;2024-03-08T02:21:52;99461.25;;;1.23;71.85
84781;BME280;75011;50.086;19.886;2024-03-08T02:24:53;99458.47;;;1.24;71.45
84781;BME280;75011;50.086;19.886;2024-03-08T02:27:53;99461.94;;;1.25;71.46
84781;BME280;75011;50.086;19.886;2024-03-08T02:30:54;99457.28;;;1.27;71.58
84781;BME280;75011;50.086;19.886;2024-03-08T02:33:54;99459.09;;;1.26;71.81
84781;BME280;75011;50.086;19.886;2024-03-08T02:36:56;99458.25;;;1.26;71.56
84781;BME280;75011;50.086;19.886;2024-03-08T02:39:56;99454.44;;;1.28;71.60
84781;BME280;75011;50.086;19.886;2024-03-08T02:42:57;99459.00;;;1.20;71.60
84781;BME280;75011;50.086;19.886;2024-03-08T02:45:57;99453.94;;;1.10;71.76
84781;BME280;75011;50.086;19.886;2024-03-08T02:48:58;99446.84;;;1.11;71.33
84781;BME280;75011;50.086;19.886;2024-03-08T02:52:00;99456.72;;;1.17;71.67
84781;BME280;75011;50.086;19.886;2024-03-08T02:55:00;99460.34;;;1.16;71.62
84781;BME280;75011;50.086;19.886;2024-03-08T02:58:01;99453.94;;;1.10;71.35
84781;BME280;75011;50.086;19.886;2024-03-08T03:01:01;99458.06;;;1.13;71.25
84781;BME280;75011;50.086;19.886;2024-03-08T03:04:02;99460.06;;;1.11;71.87
84781;BME280;75011;50.086;19.886;2024-03-08T03:07:04;99462.38;;;1.14;71.77
84781;BME280;75011;50.086;19.886;2024-03-08T03:10:06;99452.41;;;1.16;71.81
84781;BME280;75011;50.086;19.886;2024-03-08T03:13:07;99453.72;;;1.20;71.32
84781;BME280;75011;50.086;19.886;2024-03-08T03:16:07;99450.25;;;1.19;71.59
84781;BME280;75011;50.086;19.886;2024-03-08T03:19:07;99455.41;;;1.13;71.81
84781;BME280;75011;50.086;19.886;2024-03-08T03:22:09;99457.63;;;1.09;71.81
84781;BME280;75011;50.086;19.886;2024-03-08T03:25:10;99458.03;;;0.98;71.49
84781;BME280;75011;50.086;19.886;2024-03-08T03:28:10;99452.84;;;1.05;71.69
84781;BME280;75011;50.086;19.886;2024-03-08T03:31:10;99458.88;;;0.99;71.81
84781;BME280;75011;50.086;19.886;2024-03-08T03:34:11;99459.69;;;0.99;71.53
84781;BME280;75011;50.086;19.886;2024-03-08T03:37:13;99443.53;;;0.94;71.64
84781;BME280;75011;50.086;19.886;2024-03-08T03:40:14;99448.09;;;1.00;71.29
84781;BME280;75011;50.086;19.886;2024-03-08T03:43:14;99458.09;;;0.90;71.70
84781;BME280;75011;50.086;19.886;2024-03-08T03:46:15;99451.91;;;0.98;71.45
84781;BME280;75011;50.086;19.886;2024-03-08T03:49:15;99455.94;;;0.94;71.48
84781;BME280;75011;50.086;19.886;2024-03-08T03:52:17;99461.09;;;0.87;72.09
84781;BME280;75011;50.086;19.886;2024-03-08T03:55:17;99459.56;;;0.93;71.94
84781;BME280;75011;50.086;19.886;2024-03-08T03:58:18;99455.38;;;0.98;71.73
84781;BME280;75011;50.086;19.886;2024-03-08T04:01:19;99461.38;;;0.92;71.96
84781;BME280;75011;50.086;19.886;2024-03-08T04:04:19;99450.66;;;0.94;71.41
84781;BME280;75011;50.086;19.886;2024-03-08T04:07:21;99442.81;;;1.00;71.77
84781;BME280;75011;50.086;19.886;2024-03-08T04:10:22;99447.47;;;0.98;71.63
84781;BME280;75011;50.086;19.886;2024-03-08T04:13:22;99448.91;;;0.86;72.21
84781;BME280;75011;50.086;19.886;2024-03-08T04:16:22;99447.50;;;0.76;72.00
84781;BME280;75011;50.086;19.886;2024-03-08T04:19:23;99440.53;;;0.75;72.05
84781;BME280;75011;50.086;19.886;2024-03-08T04:22:25;99449.31;;;0.75;72.23
84781;BME280;75011;50.086;19.886;2024-03-08T04:25:25;99453.13;;;0.73;72.22
84781;BME280;75011;50.086;19.886;2024-03-08T04:28:25;99450.31;;;0.74;72.50
84781;BME280;75011;50.086;19.886;2024-03-08T04:31:26;99451.88;;;0.83;71.86
84781;BME280;75011;50.086;19.886;2024-03-08T04:34:26;99454.00;;;0.88;71.53
84781;BME280;75011;50.086;19.886;2024-03-08T04:37:28;99448.78;;;0.80;71.58
84781;BME280;75011;50.086;19.886;2024-03-08T04:40:29;99456.91;;;0.78;72.58
84781;BME280;75011;50.086;19.886;2024-03-08T04:43:29;99440.91;;;0.72;71.99
84781;BME280;75011;50.086;19.886;2024-03-08T04:46:30;99444.44;;;0.87;72.36
84781;BME280;75011;50.086;19.886;2024-03-08T04:49:30;99450.81;;;0.92;71.69
84781;BME280;75011;50.086;19.886;2024-03-08T04:52:32;99435.03;;;0.84;71.47
84781;BME280;75011;50.086;19.886;2024-03-08T04:55:32;99460.75;;;0.90;71.26
84781;BME280;75011;50.086;19.886;2024-03-08T04:58:34;99463.94;;;0.86;71.91
84781;BME280;75011;50.086;19.886;2024-03-08T05:01:35;99457.38;;;0.82;71.95
84781;BME280;75011;50.086;19.886;2024-03-08T05:04:36;99467.06;;;0.89;72.73
84781;BME280;75011;50.086;19.886;2024-03-08T05:07:38;99470.06;;;0.86;71.68
84781;BME280;75011;50.086;19.886;2024-03-08T05:10:38;99476.19;;;0.87;72.16
84781;BME280;75011;50.086;19.886;2024-03-08T05:13:39;99481.81;;;0.84;72.35
84781;BME280;75011;50.086;19.886;2024-03-08T05:16:39;99474.72;;;0.84;72.24
84781;BME280;75011;50.086;19.886;2024-03-08T05:19:39;99472.41;;;0.81;72.33
84781;BME280;75011;50.086;19.886;2024-03-08T05:22:41;99469.94;;;0.80;72.68
84781;BME280;75011;50.086;19.886;2024-03-08T05:25:42;99471.78;;;0.79;72.86
84781;BME280;75011;50.086;19.886;2024-03-08T05:28:42;99467.47;;;0.78;72.39
84781;BME280;75011;50.086;19.886;2024-03-08T05:31:49;99455.22;;;0.77;73.08
84781;BME280;75011;50.086;19.886;2024-03-08T05:34:50;99462.19;;;0.78;72.31
84781;BME280;75011;50.086;19.886;2024-03-08T05:37:51;99462.38;;;0.77;72.20
84781;BME280;75011;50.086;19.886;2024-03-08T05:40:52;99465.53;;;0.72;72.89
84781;BME280;75011;50.086;19.886;2024-03-08T05:43:52;99461.84;;;0.81;72.30
84781;BME280;75011;50.086;19.886;2024-03-08T05:46:53;99460.44;;;0.71;72.63
84781;BME280;75011;50.086;19.886;2024-03-08T05:49:53;99462.78;;;0.66;72.91
84781;BME280;75011;50.086;19.886;2024-03-08T05:52:55;99458.31;;;0.66;72.82
84781;BME280;75011;50.086;19.886;2024-03-08T05:55:55;99473.00;;;0.69;72.56
84781;BME280;75011;50.086;19.886;2024-03-08T05:58:56;99472.81;;;0.70;72.63
84781;BME280;75011;50.086;19.886;2024-03-08T06:01:57;99468.84;;;0.74;72.81
84781;BME280;75011;50.086;19.886;2024-03-08T06:04:57;99472.06;;;0.84;72.73
84781;BME280;75011;50.086;19.886;2024-03-08T06:07:59;99476.34;;;0.85;72.07
84781;BME280;75011;50.086;19.886;2024-03-08T06:10:59;99485.09;;;0.86;72.50
84781;BME280;75011;50.086;19.886;2024-03-08T06:14:00;99473.53;;;0.87;72.10
84781;BME280;75011;50.086;19.886;2024-03-08T06:17:00;99472.50;;;0.88;71.87
84781;BME280;75011;50.086;19.886;2024-03-08T06:20:01;99478.56;;;0.96;72.82
84781;BME280;75011;50.086;19.886;2024-03-08T06:23:03;99476.38;;;1.00;71.99
84781;BME280;75011;50.086;19.886;2024-03-08T06:26:04;99483.78;;;1.04;71.82
84781;BME280;75011;50.086;19.886;2024-03-08T06:29:04;99451.75;;;0.99;71.62
84781;BME280;75011;50.086;19.886;2024-03-08T06:32:05;99475.31;;;1.09;72.26
84781;BME280;75011;50.086;19.886;2024-03-08T06:35:06;99458.97;;;1.05;71.77
84781;BME280;75011;50.086;19.886;2024-03-08T06:38:08;99478.59;;;1.11;71.56
84781;BME280;75011;50.086;19.886;2024-03-08T06:41:09;99476.91;;;0.95;71.72
84781;BME280;75011;50.086;19.886;2024-03-08T06:44:09;99473.41;;;0.80;72.20
84781;BME280;75011;50.086;19.886;2024-03-08T06:47:10;99473.97;;;0.90;73.03
84781;BME280;75011;50.086;19.886;2024-03-08T06:50:10;99478.44;;;0.90;72.16
84781;BME280;75011;50.086;19.886;2024-03-08T06:53:12;99468.81;;;0.97;72.69
84781;BME280;75011;50.086;19.886;2024-03-08T06:56:13;99475.69;;;1.20;72.17
84781;BME280;75011;50.086;19.886;2024-03-08T06:59:13;99469.22;;;1.23;72.08
84781;BME280;75011;50.086;19.886;2024-03-08T07:02:14;99468.28;;;1.16;72.05
84781;BME280;75011;50.086;19.886;2024-03-08T07:05:14;99471.84;;;1.08;71.75
84781;BME280;75011;50.086;19.886;2024-03-08T07:08:16;99478.59;;;1.11;71.92
84781;BME280;75011;50.086;19.886;2024-03-08T07:11:17;99476.78;;;1.11;72.01
84781;BME280;75011;50.086;19.886;2024-03-08T07:14:17;99477.97;;;1.09;72.40
84781;BME280;75011;50.086;19.886;2024-03-08T07:17:18;99484.16;;;1.16;71.77
84781;BME280;75011;50.086;19.886;2024-03-08T07:20:18;99475.53;;;1.22;72.30
84781;BME280;75011;50.086;19.886;2024-03-08T07:23:20;99473.69;;;1.22;71.70
84781;BME280;75011;50.086;19.886;2024-03-08T07:26:21;99480.75;;;1.30;71.86
84781;BME280;75011;50.086;19.886;2024-03-08T07:29:21;99475.06;;;1.33;71.21
84781;BME280;75011;50.086;19.886;2024-03-08T07:32:22;99483.75;;;1.42;71.14
84781;BME280;75011;50.086;19.886;2024-03-08T07:35:22;99466.31;;;1.47;71.05
84781;BME280;75011;50.086;19.886;2024-03-08T07:38:24;99478.84;;;1.53;70.62
84781;BME280;75011;50.086;19.886;2024-03-08T07:41:24;99479.47;;;1.55;70.45
84781;BME280;75011;50.086;19.886;2024-03-08T07:44:25;99483.19;;;1.46;70.18
84781;BME280;75011;50.086;19.886;2024-03-08T07:47:25;99476.28;;;1.45;70.86
84781;BME280;75011;50.086;19.886;2024-03-08T07:50:26;99480.38;;;1.62;70.90
84781;BME280;75011;50.086;19.886;2024-03-08T07:53:27;99476.53;;;1.79;70.04
84781;BME280;75011;50.086;19.886;2024-03-08T07:56:28;99476.81;;;1.84;70.05
84781;BME280;75011;50.086;19.886;2024-03-08T07:59:28;99467.94;;;1.92;69.52
84781;BME280;75011;50.086;19.886;2024-03-08T08:02:29;99469.66;;;2.00;69.44
84781;BME280;75011;50.086;19.886;2024-03-08T08:05:29;99466.56;;;1.96;69.17
84781;BME280;75011;50.086;19.886;2024-03-08T08:08:31;99462.81;;;2.05;69.06
84781;BME280;75011;50.086;19.886;2024-03-08T08:11:32;99465.88;;;2.23;69.01
84781;BME280;75011;50.086;19.886;2024-03-08T08:14:32;99457.69;;;2.39;68.11
84781;BME280;75011;50.086;19.886;2024-03-08T08:17:33;99466.28;;;2.41;67.38
84781;BME280;75011;50.086;19.886;2024-03-08T08:20:33;99457.31;;;2.42;68.00
84781;BME280;75011;50.086;19.886;2024-03-08T08:23:35;99464.06;;;2.66;67.26
84781;BME280;75011;50.086;19.886;2024-03-08T08:26:36;99462.63;;;2.85;67.28
84781;BME280;75011;50.086;19.886;2024-03-08T08:29:36;99461.53;;;3.00;66.53
84781;BME280;75011;50.086;19.886;2024-03-08T08:32:36;99470.75;;;3.04;66.33
84781;BME280;75011;50.086;19.886;2024-03-08T08:35:37;99461.09;;;2.97;66.53
84781;BME280;75011;50.086;19.886;2024-03-08T08:38:39;99471.16;;;3.01;66.52
84781;BME280;75011;50.086;19.886;2024-03-08T08:41:39;99457.97;;;3.14;66.38
84781;BME280;75011;50.086;19.886;2024-03-08T08:44:40;99458.00;;;3.49;65.45
84781;BME280;75011;50.086;19.886;2024-03-08T08:47:40;99454.69;;;3.81;64.37
84781;BME280;75011;50.086;19.886;2024-03-08T08:50:41;99457.66;;;3.99;63.85
84781;BME280;75011;50.086;19.886;2024-03-08T08:53:43;99468.84;;;4.29;62.77
84781;BME280;75011;50.086;19.886;2024-03-08T08:56:43;99461.84;;;4.28;63.23
84781;BME280;75011;50.086;19.886;2024-03-08T08:59:43;99460.44;;;4.32;62.61
84781;BME280;75011;50.086;19.886;2024-03-08T09:02:44;99458.19;;;4.35;62.51
84781;BME280;75011;50.086;19.886;2024-03-08T09:05:44;99460.50;;;4.52;62.13
84781;BME280;75011;50.086;19.886;2024-03-08T09:08:46;99462.78;;;4.81;61.15
84781;BME280;75011;50.086;19.886;2024-03-08T09:11:47;99455.41;;;4.70;61.12
84781;BME280;75011;50.086;19.886;2024-03-08T09:14:47;99447.84;;;4.67;61.21
84781;BME280;75011;50.086;19.886;2024-03-08T09:17:48;99450.47;;;4.60;61.80
84781;BME280;75011;50.086;19.886;2024-03-08T09:20:48;99453.13;;;4.60;61.78
84781;BME280;75011;50.086;19.886;2024-03-08T09:23:50;99451.69;;;4.51;61.84
84781;BME280;75011;50.086;19.886;2024-03-08T09:26:50;99457.41;;;4.48;61.83
84781;BME280;75011;50.086;19.886;2024-03-08T09:29:51;99456.22;;;4.64;61.38
84781;BME280;75011;50.086;19.886;2024-03-08T09:32:51;99449.91;;;5.04;59.82
84781;BME280;75011;50.086;19.886;2024-03-08T09:35:52;99448.88;;;5.31;58.91
84781;BME280;75011;50.086;19.886;2024-03-08T09:38:53;99443.88;;;5.67;58.64
84781;BME280;75011;50.086;19.886;2024-03-08T09:41:54;99446.06;;;5.97;57.51
84781;BME280;75011;50.086;19.886;2024-03-08T09:44:54;99443.50;;;5.51;58.58
84781;BME280;75011;50.086;19.886;2024-03-08T09:47:55;99441.19;;;5.74;58.13
84781;BME280;75011;50.086;19.886;2024-03-08T09:50:56;99435.41;;;5.97;57.93
84781;BME280;75011;50.086;19.886;2024-03-08T09:53:58;99438.22;;;6.15;56.95
84781;BME280;75011;50.086;19.886;2024-03-08T09:56:58;99438.13;;;6.66;54.94
84781;BME280;75011;50.086;19.886;2024-03-08T09:59:59;99437.22;;;6.78;55.03
84781;BME280;75011;50.086;19.886;2024-03-08T10:03:01;99432.59;;;6.92;54.34
84781;BME280;75011;50.086;19.886;2024-03-08T10:06:01;99431.72;;;6.98;54.31
84781;BME280;75011;50.086;19.886;2024-03-08T10:09:03;99424.28;;;6.75;54.72
84781;BME280;75011;50.086;19.886;2024-03-08T10:12:04;99420.81;;;7.00;54.25
84781;BME280;75011;50.086;19.886;2024-03-08T10:15:07;99425.50;;;6.79;54.26
84781;BME280;75011;50.086;19.886;2024-03-08T10:18:08;99425.09;;;6.45;54.78
84781;BME280;75011;50.086;19.886;2024-03-08T10:21:09;99427.63;;;5.89;55.71
84781;BME280;75011;50.086;19.886;2024-03-08T10:24:11;99420.13;;;5.59;55.35
84781;BME280;75011;50.086;19.886;2024-03-08T10:27:12;99418.97;;;5.03;57.16
84781;BME280;75011;50.086;19.886;2024-03-08T10:30:15;99431.47;;;5.02;57.18
84781;BME280;75011;50.086;19.886;2024-03-08T10:33:16;99425.91;;;4.78;56.46
84781;BME280;75011;50.086;19.886;2024-03-08T10:36:16;99427.53;;;4.46;57.89
84781;BME280;75011;50.086;19.886;2024-03-08T10:39:21;99426.72;;;4.59;57.96
84781;BME280;75011;50.086;19.886;2024-03-08T10:42:27;99414.88;;;4.94;56.86
84781;BME280;75011;50.086;19.886;2024-03-08T10:45:34;99411.97;;;5.22;56.25
84781;BME280;75011;50.086;19.886;2024-03-08T10:48:43;99402.56;;;5.19;56.29
84781;BME280;75011;50.086;19.886;2024-03-08T10:51:45;99410.75;;;5.11;56.86
84781;BME280;75011;50.086;19.886;2024-03-08T10:54:48;99400.72;;;5.06;56.18
84781;BME280;75011;50.086;19.886;2024-03-08T10:57:48;99405.84;;;4.88;57.10
84781;BME280;75011;50.086;19.886;2024-03-08T11:00:49;99378.84;;;4.98;56.78
84781;BME280;75011;50.086;19.886;2024-03-08T11:03:49;99386.19;;;5.02;56.94
84781;BME280;75011;50.086;19.886;2024-03-08T11:06:50;99392.69;;;5.39;56.56
84781;BME280;75011;50.086;19.886;2024-03-08T11:09:52;99397.31;;;5.70;56.22
84781;BME280;75011;50.086;19.886;2024-03-08T11:12:53;99386.44;;;5.65;55.43
84781;BME280;75011;50.086;19.886;2024-03-08T11:15:53;99384.88;;;5.51;55.96
84781;BME280;75011;50.086;19.886;2024-03-08T11:18:54;99385.81;;;5.76;55.72
84781;BME280;75011;50.086;19.886;2024-03-08T11:22:03;99380.16;;;6.10;54.87
84781;BME280;75011;50.086;19.886;2024-03-08T11:25:05;99383.72;;;6.29;54.47
84781;BME280;75011;50.086;19.886;2024-03-08T11:28:12;99381.28;;;6.59;53.84
84781;BME280;75011;50.086;19.886;2024-03-08T11:31:23;99377.91;;;6.70;53.60
84781;BME280;75011;50.086;19.886;2024-03-08T11:34:25;99366.69;;;6.61;53.91
84781;BME280;75011;50.086;19.886;2024-03-08T11:37:28;99372.13;;;6.42;54.49
84781;BME280;75011;50.086;19.886;2024-03-08T11:40:30;99363.94;;;6.43;54.09
84781;BME280;75011;50.086;19.886;2024-03-08T11:43:30;99360.75;;;6.28;54.34
84781;BME280;75011;50.086;19.886;2024-03-08T11:46:31;99360.69;;;6.34;54.31
84781;BME280;75011;50.086;19.886;2024-03-08T11:49:32;99359.53;;;6.55;54.22
84781;BME280;75011;50.086;19.886;2024-03-08T11:52:32;99363.63;;;6.82;53.32
84781;BME280;75011;50.086;19.886;2024-03-08T11:55:34;99359.69;;;6.85;53.07
84781;BME280;75011;50.086;19.886;2024-03-08T11:58:35;99349.88;;;7.04;52.86
84781;BME280;75011;50.086;19.886;2024-03-08T12:01:35;99337.22;;;7.17;52.11
84781;BME280;75011;50.086;19.886;2024-03-08T12:04:36;99343.66;;;7.10;52.19
84781;BME280;75011;50.086;19.886;2024-03-08T12:07:36;99345.72;;;7.26;52.02
84781;BME280;75011;50.086;19.886;2024-03-08T12:10:38;99341.00;;;7.28;52.22
84781;BME280;75011;50.086;19.886;2024-03-08T12:13:39;99330.31;;;7.46;51.81
84781;BME280;75011;50.086;19.886;2024-03-08T12:16:39;99332.22;;;7.75;51.25
84781;BME280;75011;50.086;19.886;2024-03-08T12:19:40;99328.13;;;8.02;50.36
84781;BME280;75011;50.086;19.886;2024-03-08T12:22:41;99333.13;;;7.99;50.30
84781;BME280;75011;50.086;19.886;2024-03-08T12:25:43;99322.47;;;8.10;50.35
84781;BME280;75011;50.086;19.886;2024-03-08T12:28:45;99330.88;;;8.25;49.62
84781;BME280;75011;50.086;19.886;2024-03-08T12:31:46;99320.41;;;9.23;48.69
84781;BME280;75011;50.086;19.886;2024-03-08T12:34:52;99318.34;;;11.00;44.96
84781;BME280;75011;50.086;19.886;2024-03-08T12:37:53;99316.59;;;12.14;43.50
84781;BME280;75011;50.086;19.886;2024-03-08T12:40:59;99314.31;;;12.27;43.85
84781;BME280;75011;50.086;19.886;2024-03-08T12:44:00;99311.38;;;12.29;43.40
84781;BME280;75011;50.086;19.886;2024-03-08T12:47:00;99315.41;;;12.58;42.85
84781;BME280;75011;50.086;19.886;2024-03-08T12:50:01;99300.28;;;12.89;41.86
84781;BME280;75011;50.086;19.886;2024-03-08T12:53:02;99311.44;;;14.21;39.80
84781;BME280;75011;50.086;19.886;2024-03-08T12:56:04;99306.59;;;15.19;38.40
84781;BME280;75011;50.086;19.886;2024-03-08T12:59:05;99298.50;;;15.14;37.82
84781;BME280;75011;50.086;19.886;2024-03-08T13:02:06;99292.59;;;14.97;37.87
84781;BME280;75011;50.086;19.886;2024-03-08T13:05:07;99291.50;;;15.82;36.85
84781;BME280;75011;50.086;19.886;2024-03-08T13:08:08;99278.84;;;15.72;36.26
84781;BME280;75011;50.086;19.886;2024-03-08T13:11:10;99280.78;;;16.11;35.83
84781;BME280;75011;50.086;19.886;2024-03-08T13:14:10;99279.84;;;17.27;33.94
84781;BME280;75011;50.086;19.886;2024-03-08T13:17:11;99268.88;;;18.21;31.92
84781;BME280;75011;50.086;19.886;2024-03-08T13:20:11;99273.66;;;17.69;32.41
84781;BME280;75011;50.086;19.886;2024-03-08T13:23:12;99269.31;;;16.91;33.15
84781;BME280;75011;50.086;19.886;2024-03-08T13:26:14;99274.38;;;17.03;32.79
84781;BME280;75011;50.086;19.886;2024-03-08T13:29:15;99266.53;;;17.49;31.84
84781;BME280;75011;50.086;19.886;2024-03-08T13:32:16;99269.97;;;18.90;30.00
84781;BME280;75011;50.086;19.886;2024-03-08T13:35:17;99260.97;;;20.26;28.01
84781;BME280;75011;50.086;19.886;2024-03-08T13:38:17;99264.72;;;20.83;26.96
84781;BME280;75011;50.086;19.886;2024-03-08T13:41:19;99259.59;;;20.81;26.93
84781;BME280;75011;50.086;19.886;2024-03-08T13:44:20;99255.34;;;20.66;27.21
84781;BME280;75011;50.086;19.886;2024-03-08T13:47:20;99248.13;;;21.71;25.88
84781;BME280;75011;50.086;19.886;2024-03-08T13:50:20;99243.50;;;21.98;25.49
84781;BME280;75011;50.086;19.886;2024-03-08T13:53:21;99255.22;;;23.09;23.87
84781;BME280;75011;50.086;19.886;2024-03-08T13:56:23;99247.47;;;23.49;23.39
84781;BME280;75011;50.086;19.886;2024-03-08T13:59:23;99249.00;;;23.30;22.80
84781;BME280;75011;50.086;19.886;2024-03-08T14:02:24;99244.50;;;23.25;22.87
84781;BME280;75011;50.086;19.886;2024-03-08T14:05:24;99238.94;;;21.76;24.31
84781;BME280;75011;50.086;19.886;2024-03-08T14:08:25;99237.53;;;21.39;24.72
84781;BME280;75011;50.086;19.886;2024-03-08T14:11:27;99233.34;;;22.75;23.12
84781;BME280;75011;50.086;19.886;2024-03-08T14:14:27;99227.44;;;22.05;23.62
84781;BME280;75011;50.086;19.886;2024-03-08T14:17:27;99228.47;;;21.21;24.10
84781;BME280;75011;50.086;19.886;2024-03-08T14:20:28;99239.84;;;20.62;24.87
84781;BME280;75011;50.086;19.886;2024-03-08T14:23:28;99222.91;;;21.91;23.44
84781;BME280;75011;50.086;19.886;2024-03-08T14:26:30;99228.31;;;21.83;23.20
84781;BME280;75011;50.086;19.886;2024-03-08T14:29:31;99230.94;;;21.88;23.17
84781;BME280;75011;50.086;19.886;2024-03-08T14:32:31;99231.59;;;22.11;22.98
84781;BME280;75011;50.086;19.886;2024-03-08T14:35:31;99214.06;;;21.95;23.15
84781;BME280;75011;50.086;19.886;2024-03-08T14:38:32;99227.75;;;22.12;23.19
84781;BME280;75011;50.086;19.886;2024-03-08T14:41:34;99224.69;;;23.57;21.79
84781;BME280;75011;50.086;19.886;2024-03-08T14:44:34;99220.75;;;22.91;22.11
84781;BME280;75011;50.086;19.886;2024-03-08T14:47:35;99221.00;;;21.44;23.70
84781;BME280;75011;50.086;19.886;2024-03-08T14:50:35;99222.66;;;20.84;24.16
84781;BME280;75011;50.086;19.886;2024-03-08T14:53:36;99223.03;;;19.88;25.38
84781;BME280;75011;50.086;19.886;2024-03-08T14:56:37;99218.84;;;19.55;25.88
84781;BME280;75011;50.086;19.886;2024-03-08T14:59:38;99218.13;;;19.77;25.41
84781;BME280;75011;50.086;19.886;2024-03-08T15:02:39;99206.47;;;20.96;24.09
84781;BME280;75011;50.086;19.886;2024-03-08T15:05:39;99209.13;;;21.57;23.38
84781;BME280;75011;50.086;19.886;2024-03-08T15:08:40;99207.94;;;21.33;23.51
84781;BME280;75011;50.086;19.886;2024-03-08T15:11:45;99207.75;;;21.29;23.41
84781;BME280;75011;50.086;19.886;2024-03-08T15:14:45;99208.91;;;20.44;24.59
84781;BME280;75011;50.086;19.886;2024-03-08T15:17:46;99202.78;;;19.54;25.99
84781;BME280;75011;50.086;19.886;2024-03-08T15:20:46;99196.47;;;20.60;24.51
84781;BME280;75011;50.086;19.886;2024-03-08T15:23:47;99202.03;;;21.08;24.13
84781;BME280;75011;50.086;19.886;2024-03-08T15:26:48;99200.78;;;20.53;24.41
84781;BME280;75011;50.086;19.886;2024-03-08T15:29:49;99192.81;;;19.49;25.70
84781;BME280;75011;50.086;19.886;2024-03-08T15:32:49;99191.28;;;19.02;26.00
84781;BME280;75011;50.086;19.886;2024-03-08T15:35:50;99204.91;;;18.56;26.90
84781;BME280;75011;50.086;19.886;2024-03-08T15:38:50;99194.09;;;18.97;26.51
84781;BME280;75011;50.086;19.886;2024-03-08T15:41:52;99188.25;;;19.17;26.43
84781;BME280;75011;50.086;19.886;2024-03-08T15:44:53;99178.38;;;19.08;25.88
84781;BME280;75011;50.086;19.886;2024-03-08T15:47:53;99196.81;;;17.63;28.20
84781;BME280;75011;50.086;19.886;2024-03-08T15:50:54;99193.47;;;16.76;29.28
84781;BME280;75011;50.086;19.886;2024-03-08T15:53:54;99195.09;;;16.77;28.99
84781;BME280;75011;50.086;19.886;2024-03-08T15:56:56;99196.19;;;16.48;29.74